Time;durP1;ratioP1;P1;durP2;ratioP2;P2;SDS_P1;SDS_P2;PMS_P1;PMS_P2;Temp;Humidity;BMP_temperature;BMP_pressure;BME280_temperature;BME280_humidity;BME280_pressure;Samples;Min_cycle;Max_cycle;Signal;HPM_P1;HPM_P2
2023/11/07 00:00:26;;;;;;;0.80;0.35;;;8.20;72.90;;;;;;5033786;28;20031;-79
2023/11/07 00:02:53;;;;;;;1.95;0.45;;;8.10;73.10;;;;;;5032814;28;20485;-81
2023/11/07 00:05:22;;;;;;;1.42;0.30;;;8.10;73.70;;;;;;5032529;28;20026;-78
2023/11/07 00:07:47;;;;;;;2.65;0.65;;;8.10;74.10;;;;;;5032382;28;20489;-78
2023/11/07 00:10:13;;;;;;;2.33;0.40;;;8.00;74.20;;;;;;5032453;28;20029;-78
2023/11/07 00:12:39;;;;;;;2.53;0.38;;;8.00;74.40;;;;;;5032523;28;20052;-79
2023/11/07 00:15:05;;;;;;;1.98;0.43;;;8.10;74.50;;;;;;5033984;28;20060;-79
2023/11/07 00:17:30;;;;;;;0.68;0.20;;;8.00;74.30;;;;;;5032850;28;20446;-78
2023/11/07 00:19:56;;;;;;;1.02;0.40;;;8.10;74.30;;;;;;5033590;28;20056;-78
2023/11/07 00:22:23;;;;;;;1.05;0.30;;;8.00;74.30;;;;;;5032516;28;20033;-79
2023/11/07 00:24:49;;;;;;;1.35;0.40;;;8.00;74.60;;;;;;5032363;28;20059;-79
2023/11/07 00:27:17;;;;;;;0.63;0.38;;;8.00;74.90;;;;;;5032322;28;20025;-78
2023/11/07 00:29:44;;;;;;;1.05;0.30;;;8.00;75.10;;;;;;5032142;28;20018;-76
2023/11/07 00:32:09;;;;;;;2.35;0.30;;;7.90;75.00;;;;;;5032187;28;20150;-76
2023/11/07 00:34:35;;;;;;;1.48;0.50;;;7.90;75.00;;;;;;5033165;28;20100;-78
2023/11/07 00:37:01;;;;;;;0.63;0.20;;;7.80;75.20;;;;;;5032146;28;20411;-78
2023/11/07 00:39:26;;;;;;;2.05;0.65;;;7.80;75.50;;;;;;5032007;28;20713;-78
2023/11/07 00:41:52;;;;;;;3.10;0.70;;;7.80;75.90;;;;;;5031697;28;20131;-76
2023/11/07 00:44:18;;;;;;;0.85;0.40;;;7.70;76.60;;;;;;5031659;28;20042;-76
2023/11/07 00:46:43;;;;;;;0.63;0.30;;;7.60;76.90;;;;;;5031828;28;20025;-75
2023/11/07 00:49:09;;;;;;;2.58;0.52;;;7.60;77.30;;;;;;5031720;28;20091;-75
2023/11/07 00:51:35;;;;;;;1.55;0.50;;;7.50;77.60;;;;;;5031729;28;20032;-76
2023/11/07 00:54:00;;;;;;;2.40;0.32;;;7.50;77.80;;;;;;5032028;28;20504;-76
2023/11/07 00:56:26;;;;;;;2.25;0.30;;;7.40;78.10;;;;;;5031728;28;20026;-78
2023/11/07 00:58:51;;;;;;;1.25;0.22;;;7.30;77.80;;;;;;5032121;28;20050;-78
2023/11/07 01:01:17;;;;;;;1.30;0.38;;;7.30;77.60;;;;;;5031453;28;20544;-77
2023/11/07 01:03:44;;;;;;;2.65;0.40;;;7.30;77.30;;;;;;5031858;28;20033;-78
2023/11/07 01:06:10;;;;;;;2.38;0.32;;;7.30;77.90;;;;;;5036971;28;20322;-78
2023/11/07 01:08:36;;;;;;;0.93;0.25;;;7.30;78.30;;;;;;5038142;28;20050;-78
2023/11/07 01:11:03;;;;;;;0.20;0.20;;;7.20;78.70;;;;;;5038271;28;20029;-79
2023/11/07 01:13:29;;;;;;;7.72;4.75;;;7.10;79.20;;;;;;5038400;28;20025;-78
2023/11/07 01:15:54;;;;;;;10.57;5.65;;;7.10;79.20;;;;;;5038407;28;20479;-77
2023/11/07 01:18:20;;;;;;;2.95;2.22;;;7.10;79.00;;;;;;5039345;28;20094;-78
2023/11/07 01:20:46;;;;;;;4.80;2.55;;;7.10;79.10;;;;;;5039374;28;20021;-78
2023/11/07 01:23:15;;;;;;;4.03;1.90;;;7.10;79.00;;;;;;5038289;28;20055;-78
2023/11/07 01:25:41;;;;;;;2.03;0.80;;;7.10;79.90;;;;;;5038270;28;20496;-79
2023/11/07 01:28:07;;;;;;;0.32;0.32;;;7.10;79.00;;;;;;5038412;28;20052;-78
2023/11/07 01:30:33;;;;;;;2.25;0.40;;;7.10;78.90;;;;;;5038286;28;20450;-78
2023/11/07 01:32:58;;;;;;;1.17;0.40;;;7.10;78.90;;;;;;5038234;28;20036;-78
2023/11/07 01:35:25;;;;;;;1.13;0.63;;;7.10;79.00;;;;;;5038018;28;20496;-78
2023/11/07 01:37:54;;;;;;;0.95;0.20;;;7.00;79.10;;;;;;5038198;28;20025;-78
2023/11/07 01:40:19;;;;;;;1.00;0.30;;;7.00;79.10;;;;;;5038175;28;20029;-77
2023/11/07 01:42:46;;;;;;;2.25;0.30;;;7.00;79.10;;;;;;5038060;28;20463;-76
2023/11/07 01:45:12;;;;;;;2.03;0.30;;;7.00;79.20;;;;;;5038987;28;20497;-77
2023/11/07 01:47:40;;;;;;;1.63;0.40;;;6.90;79.20;;;;;;5038237;28;20018;-78
2023/11/07 01:50:10;;;;;;;1.58;0.50;;;6.90;79.20;;;;;;5038565;28;20036;-78
2023/11/07 01:52:37;;;;;;;1.42;0.20;;;6.90;79.50;;;;;;5022731;28;20025;-80
2023/11/07 01:55:04;;;;;;;1.98;0.40;;;6.80;79.40;;;;;;5038302;28;20029;-78
2023/11/07 01:57:30;;;;;;;0.95;0.40;;;6.80;79.60;;;;;;5038957;28;20068;-81
2023/11/07 01:59:56;;;;;;;2.00;0.45;;;6.80;79.70;;;;;;5038765;28;20017;-80
2023/11/07 02:02:22;;;;;;;1.90;0.50;;;6.80;79.50;;;;;;5039047;28;20036;-80
2023/11/07 02:04:48;;;;;;;1.55;0.45;;;6.80;79.60;;;;;;5042666;28;20026;-79
2023/11/07 02:07:14;;;;;;;1.42;0.50;;;6.70;79.90;;;;;;5053003;28;20083;-79
2023/11/07 03:30:30;;;;;;;1.35;0.90;;;6.40;82.10;;;;;;3884827;28;23089;-77
2023/11/07 03:32:56;;;;;;;1.70;0.85;;;6.40;81.60;;;;;;5034352;28;20034;-77
2023/11/07 03:35:23;;;;;;;3.75;1.02;;;6.40;81.60;;;;;;5034284;28;20036;-78
2023/11/07 03:37:48;;;;;;;1.73;0.60;;;6.40;81.50;;;;;;5034158;28;20033;-80
2023/11/07 03:40:14;;;;;;;2.17;0.95;;;6.40;81.60;;;;;;5032866;28;20079;-78
2023/11/07 03:42:39;;;;;;;2.50;1.05;;;6.40;81.90;;;;;;5034219;28;20030;-80
2023/11/07 03:45:05;;;;;;;0.98;0.60;;;6.40;81.90;;;;;;5034289;28;20032;-80
2023/11/07 03:47:31;;;;;;;2.83;0.90;;;6.40;82.10;;;;;;5034175;28;20030;-78
2023/11/07 03:49:56;;;;;;;1.27;0.57;;;6.30;82.40;;;;;;5033989;28;20095;-80
2023/11/07 03:52:22;;;;;;;2.78;1.13;;;6.30;82.50;;;;;;5034027;28;20025;-79
2023/11/07 03:54:48;;;;;;;1.42;0.70;;;6.20;82.50;;;;;;5034053;28;20445;-80
2023/11/07 03:57:13;;;;;;;1.40;0.75;;;6.20;82.60;;;;;;5032521;28;20550;-81
2023/11/07 03:59:43;;;;;;;3.10;1.10;;;6.30;82.70;;;;;;5033746;28;20021;-78
2023/11/07 04:02:08;;;;;;;2.47;0.80;;;6.30;82.50;;;;;;5033856;28;20030;-80
2023/11/07 04:04:34;;;;;;;1.98;0.80;;;6.30;82.60;;;;;;5033814;28;20041;-80
2023/11/07 04:06:59;;;;;;;2.60;0.80;;;6.30;82.60;;;;;;5033724;28;20026;-80
2023/11/07 04:09:25;;;;;;;3.53;1.10;;;6.20;82.50;;;;;;5032498;28;20026;-78
2023/11/07 04:11:50;;;;;;;2.45;0.70;;;6.20;82.60;;;;;;5033672;28;20056;-79
2023/11/07 04:14:17;;;;;;;1.25;0.70;;;6.20;82.80;;;;;;5033403;28;20466;-79
2023/11/07 04:16:44;;;;;;;2.28;0.70;;;6.20;82.90;;;;;;5033190;28;20061;-79
2023/11/07 04:19:11;;;;;;;3.35;0.70;;;6.10;82.90;;;;;;5033438;28;20025;-78
2023/11/07 04:21:37;;;;;;;2.03;0.88;;;6.10;82.90;;;;;;5033386;28;20029;-78
2023/11/07 04:24:05;;;;;;;1.58;1.10;;;6.10;83.00;;;;;;5033507;28;20025;-79
2023/11/07 04:26:31;;;;;;;7.03;2.67;;;6.10;83.00;;;;;;5033342;28;20096;-77
2023/11/07 04:28:57;;;;;;;3.35;2.10;;;6.10;82.90;;;;;;5033311;28;20088;-79
2023/11/07 04:31:23;;;;;;;2.33;1.00;;;6.10;82.80;;;;;;5032859;28;20049;-79
2023/11/07 04:33:49;;;;;;;0.75;0.57;;;6.00;83.10;;;;;;5033252;28;20045;-79
2023/11/07 04:36:16;;;;;;;2.40;1.00;;;5.90;83.30;;;;;;5033176;28;20029;-79
2023/11/07 04:38:43;;;;;;;1.42;0.75;;;5.90;83.60;;;;;;5033156;28;20093;-78
2023/11/07 04:41:09;;;;;;;0.85;0.80;;;5.90;83.60;;;;;;5032423;28;20029;-78
2023/11/07 04:43:35;;;;;;;3.83;1.50;;;5.80;83.70;;;;;;5031857;28;20037;-78
2023/11/07 04:46:02;;;;;;;4.65;2.85;;;5.90;83.60;;;;;;5032939;28;20014;-78
2023/11/07 04:48:30;;;;;;;8.98;4.57;;;5.90;83.40;;;;;;5032883;28;20025;-78
2023/11/07 04:50:57;;;;;;;9.52;5.80;;;5.90;83.10;;;;;;5032986;28;20025;-78
2023/11/07 04:53:23;;;;;;;6.45;4.25;;;5.80;83.00;;;;;;5033129;28;20021;-76
2023/11/07 04:55:49;;;;;;;5.43;3.25;;;5.80;83.00;;;;;;5032879;28;20359;-76
2023/11/07 04:58:14;;;;;;;3.30;2.20;;;5.80;82.60;;;;;;5032848;28;20029;-77
2023/11/07 05:00:40;;;;;;;2.97;2.13;;;5.70;82.60;;;;;;5031706;28;20026;-76
2023/11/07 05:03:06;;;;;;;3.50;2.25;;;5.70;82.70;;;;;;5032790;28;20028;-77
2023/11/07 05:05:31;;;;;;;4.07;2.08;;;5.70;82.50;;;;;;5032590;28;20079;-76
2023/11/07 05:07:57;;;;;;;4.63;2.22;;;5.60;82.60;;;;;;5032866;28;20029;-76
2023/11/07 05:10:23;;;;;;;3.17;2.10;;;5.70;83.00;;;;;;5032658;28;20474;-76
2023/11/07 05:12:49;;;;;;;3.15;1.60;;;5.60;83.60;;;;;;5032745;28;20521;-76
2023/11/07 05:15:15;;;;;;;1.88;1.52;;;5.60;82.90;;;;;;5032875;28;20025;-76
2023/11/07 05:17:40;;;;;;;3.13;1.70;;;5.60;82.80;;;;;;5032602;28;20033;-77
2023/11/07 05:20:08;;;;;;;3.38;1.67;;;5.70;82.70;;;;;;5032770;28;20021;-77
2023/11/07 05:22:33;;;;;;;4.72;1.92;;;5.60;82.50;;;;;;5032762;28;20026;-77
2023/11/07 05:24:59;;;;;;;2.50;1.50;;;5.60;82.60;;;;;;5032586;28;20112;-78
2023/11/07 05:27:25;;;;;;;2.83;1.75;;;5.60;82.70;;;;;;5031332;28;20037;-78
2023/11/07 05:29:50;;;;;;;2.33;2.03;;;5.60;82.80;;;;;;5032638;28;20057;-78
2023/11/07 05:32:16;;;;;;;2.58;2.08;;;5.60;82.70;;;;;;5032598;28;20042;-76
2023/11/07 05:34:42;;;;;;;4.18;2.00;;;5.70;82.90;;;;;;5032859;28;20093;-77
2023/11/07 05:37:08;;;;;;;4.88;1.98;;;5.70;82.70;;;;;;5032615;28;20029;-76
2023/11/07 05:39:34;;;;;;;1.95;1.42;;;5.70;82.50;;;;;;5032742;28;20037;-77
2023/11/07 05:42:00;;;;;;;2.10;1.45;;;5.70;82.40;;;;;;5031558;28;20025;-77
2023/11/07 05:44:25;;;;;;;2.92;1.98;;;5.70;82.30;;;;;;5032668;28;20520;-77
2023/11/07 05:46:51;;;;;;;3.58;1.58;;;5.70;82.30;;;;;;5032501;28;20474;-77
2023/11/07 05:49:17;;;;;;;2.50;1.65;;;5.70;82.30;;;;;;5032673;28;20037;-76
2023/11/07 05:51:42;;;;;;;3.05;1.77;;;5.70;82.20;;;;;;5034470;28;20366;-78
2023/11/07 05:54:09;;;;;;;2.53;1.25;;;5.70;82.20;;;;;;5036408;28;20389;-75
2023/11/07 05:56:35;;;;;;;7.65;4.32;;;5.80;82.00;;;;;;5036409;28;20516;-76
2023/11/07 05:59:02;;;;;;;18.17;10.10;;;5.80;81.80;;;;;;5037734;28;20033;-76
2023/11/07 06:01:28;;;;;;;5.63;4.05;;;5.90;81.70;;;;;;5036224;28;20385;-77
2023/11/07 06:03:54;;;;;;;3.97;2.00;;;5.90;81.60;;;;;;5036062;28;20026;-77
2023/11/07 06:06:19;;;;;;;7.82;2.97;;;6.00;80.60;;;;;;5036072;28;20068;-77
2023/11/07 06:08:45;;;;;;;8.45;4.10;;;6.00;80.10;;;;;;5036363;28;20030;-78
2023/11/07 06:11:11;;;;;;;4.13;1.60;;;6.00;79.80;;;;;;5026512;28;20395;-79
2023/11/07 06:13:36;;;;;;;2.65;1.27;;;6.00;79.80;;;;;;5016466;28;20475;-78
2023/11/07 06:16:05;;;;;;;3.25;1.15;;;5.90;79.90;;;;;;5016430;28;20375;-77
2023/11/07 06:18:32;;;;;;;4.68;1.48;;;5.90;80.00;;;;;;5016355;28;20031;-76
2023/11/07 06:20:58;;;;;;;1.67;1.23;;;5.80;80.00;;;;;;5016307;28;20467;-76
2023/11/07 06:23:24;;;;;;;3.20;1.52;;;5.80;80.30;;;;;;5016408;28;20037;-76
2023/11/07 06:25:49;;;;;;;2.95;1.15;;;5.70;80.70;;;;;;5022575;28;20423;-77
2023/11/07 06:28:15;;;;;;;4.20;1.15;;;5.70;81.00;;;;;;5016474;28;20471;-76
2023/11/07 06:30:41;;;;;;;2.97;1.23;;;5.70;81.10;;;;;;5015816;28;20036;-77
2023/11/07 06:33:07;;;;;;;1.70;1.02;;;5.80;81.10;;;;;;5015964;28;20083;-76
2023/11/07 06:35:33;;;;;;;1.80;1.58;;;5.80;81.10;;;;;;5014564;28;20034;-76
2023/11/07 06:37:59;;;;;;;6.43;2.15;;;5.80;81.20;;;;;;5031472;28;20068;-77
2023/11/07 06:40:24;;;;;;;3.85;2.22;;;5.80;81.30;;;;;;5036017;28;20477;-77
2023/11/07 06:42:52;;;;;;;3.83;2.33;;;5.80;81.50;;;;;;5035423;28;20030;-76
2023/11/07 06:45:18;;;;;;;6.15;2.35;;;5.80;81.30;;;;;;5035266;28;20379;-76
2023/11/07 06:47:45;;;;;;;3.80;1.50;;;5.80;81.10;;;;;;5035513;28;20021;-79
2023/11/07 06:50:14;;;;;;;2.58;1.50;;;5.80;81.10;;;;;;5035456;28;20053;-79
2023/11/07 06:52:41;;;;;;;3.53;2.10;;;5.80;80.90;;;;;;5035439;28;20048;-80
2023/11/07 06:55:13;;;;;;;6.60;3.10;;;5.80;80.80;;;;;;5035204;28;20025;-79
2023/11/07 06:57:39;;;;;;;4.18;3.10;;;5.90;80.80;;;;;;5035405;28;20052;-76
2023/11/07 07:00:05;;;;;;;4.80;3.00;;;5.90;80.70;;;;;;5035131;28;20064;-76
2023/11/07 07:02:32;;;;;;;6.40;3.10;;;6.00;80.70;;;;;;5034460;28;20025;-76
2023/11/07 07:04:58;;;;;;;6.15;3.40;;;6.10;80.70;;;;;;5032401;28;20021;-77
2023/11/07 07:07:24;;;;;;;7.03;2.70;;;6.10;80.70;;;;;;5032398;28;20068;-78
2023/11/07 07:09:49;;;;;;;4.10;1.98;;;6.20;80.40;;;;;;5033031;28;20032;-78
2023/11/07 07:12:15;;;;;;;4.50;2.60;;;6.30;80.30;;;;;;5032324;28;20033;-77
2023/11/07 07:14:41;;;;;;;5.10;3.05;;;6.40;80.20;;;;;;5032464;28;20032;-77
2023/11/07 07:17:07;;;;;;;5.25;2.60;;;6.40;79.70;;;;;;5031578;28;20041;-77
2023/11/07 07:19:37;;;;;;;3.78;2.47;;;6.50;79.60;;;;;;5032228;28;20072;-76
2023/11/07 07:22:05;;;;;;;5.35;2.75;;;6.60;80.20;;;;;;5032211;28;20048;-75
2023/11/07 07:24:31;;;;;;;4.72;3.08;;;6.70;78.90;;;;;;5032740;28;20097;-74
2023/11/07 07:26:58;;;;;;;22.00;11.98;;;6.80;78.70;;;;;;5034236;28;20037;-75
2023/11/07 07:29:26;;;;;;;9.70;4.28;;;6.90;78.50;;;;;;5035733;28;20045;-76
2023/11/07 07:31:53;;;;;;;5.50;2.70;;;7.10;78.10;;;;;;5030458;28;20456;-76
2023/11/07 07:34:20;;;;;;;4.82;2.30;;;7.10;77.50;;;;;;5031526;28;20030;-75
2023/11/07 07:36:47;;;;;;;5.72;2.22;;;7.20;77.80;;;;;;5031559;28;20017;-76
2023/11/07 07:39:28;;;;;;;8.18;2.38;;;7.30;76.90;;;;;;5031530;28;20025;-76
2023/11/07 07:41:58;;;;;;;4.57;2.50;;;7.80;84.30;;;;;;5030711;28;20377;-72
2023/11/07 07:44:27;;;;;;;6.30;3.42;;;8.00;79.30;;;;;;5030464;28;20041;-73
2023/11/07 07:46:54;;;;;;;4.55;2.75;;;8.20;77.10;;;;;;5030749;28;20116;-74
2023/11/07 07:49:23;;;;;;;5.50;2.35;;;8.30;75.20;;;;;;5030787;28;20026;-73
2023/11/07 07:51:52;;;;;;;5.03;2.28;;;8.40;73.20;;;;;;5030693;28;20022;-74
2023/11/07 07:54:22;;;;;;;5.38;2.25;;;8.30;73.60;;;;;;5029956;28;20120;-76
2023/11/07 07:56:53;;;;;;;2.80;1.63;;;8.40;72.70;;;;;;5030170;28;20127;-76
2023/11/07 07:59:23;;;;;;;3.33;1.48;;;8.50;72.40;;;;;;5029897;28;20099;-77
2023/11/07 08:01:53;;;;;;;3.83;1.80;;;8.60;71.90;;;;;;5029882;28;20025;-79
2023/11/07 08:04:22;;;;;;;2.28;1.40;;;8.60;71.50;;;;;;5029800;28;20155;-82
2023/11/07 08:06:49;;;;;;;2.15;1.30;;;8.70;71.90;;;;;;5030398;28;20128;-74
2023/11/07 08:09:18;;;;;;;1.40;1.00;;;8.90;71.20;;;;;;5029869;28;20095;-74
2023/11/07 08:11:50;;;;;;;3.58;1.55;;;9.10;70.20;;;;;;5029588;28;20407;-75
2023/11/07 08:14:16;;;;;;;1.75;0.75;;;9.40;70.00;;;;;;5029825;28;20032;-78
2023/11/07 08:16:43;;;;;;;1.75;0.57;;;9.60;67.70;;;;;;5029411;28;20034;-78
2023/11/07 08:19:11;;;;;;;1.65;0.73;;;9.60;66.20;;;;;;5030386;28;20458;-76
2023/11/07 08:21:40;;;;;;;4.10;0.90;;;9.50;67.00;;;;;;5030279;28;20041;-76
2023/11/07 08:24:07;;;;;;;1.15;0.55;;;9.40;67.20;;;;;;5029663;28;20458;-76
2023/11/07 08:26:33;;;;;;;1.27;0.50;;;9.50;66.30;;;;;;5029967;28;20025;-76
2023/11/07 08:29:05;;;;;;;2.80;0.80;;;9.70;65.80;;;;;;5028956;28;20164;-74
2023/11/07 08:31:35;;;;;;;1.10;0.47;;;9.90;65.90;;;;;;5029088;28;20091;-75
2023/11/07 08:34:04;;;;;;;2.22;0.52;;;10.10;65.00;;;;;;5013456;28;20228;-75
2023/11/07 08:36:34;;;;;;;3.10;1.23;;;10.10;64.40;;;;;;5029547;28;20025;-76
2023/11/07 08:38:59;;;;;;;2.45;1.42;;;10.30;64.40;;;;;;5029430;28;20021;-75
2023/11/07 08:41:26;;;;;;;1.85;0.57;;;10.10;64.60;;;;;;5029662;28;20049;-76
2023/11/07 08:43:52;;;;;;;2.03;0.95;;;10.10;63.20;;;;;;5029556;28;20029;-75
2023/11/07 08:46:20;;;;;;;0.68;0.22;;;10.00;63.00;;;;;;5028969;28;20046;-75
2023/11/07 08:48:46;;;;;;;1.77;0.30;;;10.00;63.80;;;;;;5029235;28;20046;-75
2023/11/07 08:51:16;;;;;;;1.50;0.40;;;9.80;63.20;;;;;;5029637;28;20107;-75
2023/11/07 08:53:43;;;;;;;3.67;0.40;;;9.80;63.30;;;;;;5031664;28;20026;-75
2023/11/07 08:56:09;;;;;;;1.02;0.35;;;9.70;64.70;;;;;;5028159;28;20557;-75
2023/11/07 08:58:36;;;;;;;1.73;0.60;;;9.60;64.60;;;;;;5028479;28;20107;-76
2023/11/07 09:01:04;;;;;;;2.40;0.52;;;9.60;66.10;;;;;;5028704;28;20498;-76
2023/11/07 09:03:31;;;;;;;0.98;0.43;;;9.70;66.20;;;;;;5029530;28;20025;-76
2023/11/07 09:05:57;;;;;;;2.67;0.45;;;9.90;65.80;;;;;;5028418;28;20025;-76
2023/11/07 09:08:23;;;;;;;3.35;0.50;;;10.00;64.90;;;;;;5028177;28;20385;-76
2023/11/07 09:10:49;;;;;;;0.82;0.55;;;10.10;64.80;;;;;;5028651;28;20056;-76
2023/11/07 09:13:14;;;;;;;2.25;0.47;;;10.30;64.50;;;;;;5028536;28;20025;-76
2023/11/07 09:15:43;;;;;;;2.97;0.60;;;10.50;63.30;;;;;;5028612;28;20445;-76
2023/11/07 09:18:09;;;;;;;2.88;0.75;;;10.10;63.50;;;;;;5029046;28;20370;-76
2023/11/07 09:20:42;;;;;;;1.73;0.50;;;10.30;63.80;;;;;;5030263;28;20377;-77
2023/11/07 09:23:08;;;;;;;1.45;0.40;;;10.30;63.20;;;;;;5029022;28;20468;-75
2023/11/07 09:25:35;;;;;;;1.23;0.57;;;10.10;64.20;;;;;;5029975;28;20428;-76
2023/11/07 09:28:04;;;;;;;0.80;0.60;;;10.20;63.70;;;;;;5033662;28;20080;-75
2023/11/07 09:30:29;;;;;;;1.50;0.70;;;10.20;63.80;;;;;;5032644;28;20036;-74
2023/11/07 09:32:56;;;;;;;1.08;0.50;;;10.30;63.60;;;;;;5033867;28;20362;-75
2023/11/07 09:35:23;;;;;;;1.65;0.60;;;10.50;63.50;;;;;;5032993;28;20072;-74
2023/11/07 09:37:49;;;;;;;1.17;1.00;;;10.30;62.90;;;;;;5033089;28;20128;-74
2023/11/07 09:40:19;;;;;;;3.83;1.75;;;10.20;63.70;;;;;;5032810;28;20343;-75
2023/11/07 09:42:48;;;;;;;1.83;0.90;;;10.20;64.20;;;;;;5032110;28;20051;-76
2023/11/07 09:45:18;;;;;;;2.00;0.70;;;10.20;64.30;;;;;;5032426;28;20120;-76
2023/11/07 09:47:48;;;;;;;1.25;0.47;;;10.10;63.30;;;;;;5032057;28;20101;-75
2023/11/07 09:50:16;;;;;;;0.80;0.40;;;10.10;63.70;;;;;;5032299;28;20044;-75
2023/11/07 09:52:44;;;;;;;0.93;0.40;;;10.10;63.90;;;;;;5032284;28;20093;-76
2023/11/07 09:55:14;;;;;;;2.25;0.57;;;10.30;63.30;;;;;;5032650;28;20075;-77
2023/11/07 09:57:51;;;;;;;1.30;0.50;;;10.40;63.00;;;;;;5032539;28;20128;-76
2023/11/07 10:00:22;;;;;;;2.22;0.30;;;10.60;62.30;;;;;;5032461;28;20022;-76
2023/11/07 10:02:52;;;;;;;0.30;0.30;;;10.70;61.60;;;;;;5032030;28;20029;-76
2023/11/07 10:05:20;;;;;;;1.92;0.60;;;10.70;60.90;;;;;;5032636;28;20027;-75
2023/11/07 10:07:50;;;;;;;0.98;0.50;;;10.70;63.10;;;;;;5032324;28;20029;-76
2023/11/07 10:10:16;;;;;;;0.93;0.60;;;10.80;61.90;;;;;;5032134;28;20067;-75
2023/11/07 10:12:43;;;;;;;1.88;0.65;;;10.80;61.20;;;;;;5033125;28;20057;-76
2023/11/07 10:15:24;;;;;;;2.08;0.47;;;11.20;60.90;;;;;;5033309;28;20021;-76
2023/11/07 10:18:04;;;;;;;1.33;0.60;;;11.20;59.50;;;;;;5034368;28;20083;-75
2023/11/07 10:20:31;;;;;;;0.90;0.52;;;11.10;59.80;;;;;;5038288;28;20032;-76
2023/11/07 10:22:58;;;;;;;2.10;0.55;;;11.30;59.20;;;;;;5033710;28;20083;-77
2023/11/07 10:25:38;;;;;;;0.40;0.40;;;11.70;58.00;;;;;;5031891;28;20025;-75
2023/11/07 10:28:06;;;;;;;1.30;0.40;;;12.00;56.60;;;;;;5032219;28;20155;-76
2023/11/07 10:30:36;;;;;;;1.48;0.40;;;12.10;55.30;;;;;;5031684;28;20029;-75
2023/11/07 10:33:03;;;;;;;1.80;0.45;;;11.70;56.30;;;;;;5033165;28;20030;-76
2023/11/07 10:35:30;;;;;;;2.17;0.47;;;11.20;58.50;;;;;;5032267;28;20037;-77
2023/11/07 10:37:56;;;;;;;2.42;0.70;;;11.20;58.20;;;;;;5031480;28;20029;-77
2023/11/07 10:40:22;;;;;;;2.75;0.50;;;11.10;58.90;;;;;;5031688;28;20091;-75
2023/11/07 10:42:49;;;;;;;0.65;0.30;;;10.90;60.10;;;;;;5015354;28;20045;-75
2023/11/07 10:45:18;;;;;;;2.78;0.50;;;10.90;60.00;;;;;;5031428;28;20120;-77
2023/11/07 10:47:45;;;;;;;1.25;0.43;;;11.30;59.50;;;;;;5032133;28;20386;-77
2023/11/07 10:50:17;;;;;;;0.95;0.40;;;11.50;59.10;;;;;;5032157;28;20021;-75
2023/11/07 10:52:47;;;;;;;0.77;0.32;;;11.80;56.80;;;;;;5031988;28;20041;-76
2023/11/07 10:55:17;;;;;;;0.88;0.60;;;12.00;56.50;;;;;;5032820;28;20025;-76
2023/11/07 10:57:50;;;;;;;6.38;5.47;;;12.20;56.40;;;;;;5031407;28;20133;-76
2023/11/07 11:00:20;;;;;;;0.55;0.55;;;12.50;54.90;;;;;;5015328;28;20070;-76
2023/11/07 11:02:52;;;;;;;0.50;0.40;;;12.60;54.50;;;;;;5032923;28;20104;-76
2023/11/07 11:05:23;;;;;;;1.85;0.25;;;12.70;53.50;;;;;;5032338;28;20423;-77
2023/11/07 11:07:53;;;;;;;0.60;0.40;;;12.70;53.50;;;;;;5031811;28;20078;-77
2023/11/07 11:10:30;;;;;;;0.95;0.47;;;13.00;52.60;;;;;;5032593;28;20072;-76
2023/11/07 11:12:58;;;;;;;0.52;0.30;;;13.30;51.40;;;;;;5032821;28;20473;-75
2023/11/07 11:15:25;;;;;;;2.42;0.50;;;13.10;50.50;;;;;;5031213;28;20030;-77
2023/11/07 11:18:04;;;;;;;0.47;0.30;;;13.00;51.90;;;;;;5031611;28;20049;-77
2023/11/07 11:20:51;;;;;;;0.93;0.30;;;13.30;51.10;;;;;;5032478;28;20434;-77
2023/11/07 11:23:33;;;;;;;0.93;0.60;;;13.10;51.60;;;;;;5032444;28;20059;-77
2023/11/07 11:26:23;;;;;;;0.93;0.38;;;12.80;51.80;;;;;;5031227;28;20025;-77
2023/11/07 11:28:51;;;;;;;1.35;0.47;;;12.50;52.20;;;;;;5030932;28;20455;-77
2023/11/07 11:31:24;;;;;;;0.82;0.50;;;12.40;51.80;;;;;;5030709;28;20038;-77
2023/11/07 11:34:26;;;;;;;1.10;0.40;;;12.00;52.10;;;;;;5031115;28;20034;-76
2023/11/07 11:37:03;;;;;;;0.70;0.60;;;11.80;53.50;;;;;;5031785;28;20132;-77
2023/11/07 11:39:29;;;;;;;1.08;0.50;;;11.70;54.60;;;;;;5033622;28;20099;-77
2023/11/07 11:42:03;;;;;;;1.95;0.60;;;11.90;53.70;;;;;;5034299;28;20378;-75
2023/11/07 11:44:29;;;;;;;0.32;0.32;;;12.00;52.70;;;;;;5032758;28;20022;-75
2023/11/07 11:46:55;;;;;;;1.27;0.50;;;12.00;52.10;;;;;;5030133;28;20032;-76
2023/11/07 11:49:23;;;;;;;1.00;0.60;;;11.80;53.30;;;;;;5030266;28;20118;-76
2023/11/07 11:51:53;;;;;;;2.15;0.40;;;11.70;53.60;;;;;;5030184;28;20017;-77
2023/11/07 11:54:24;;;;;;;0.17;0.17;;;11.40;53.80;;;;;;5029871;28;20057;-76
2023/11/07 11:56:50;;;;;;;1.45;0.40;;;11.10;54.20;;;;;;5031502;28;20026;-76
2023/11/07 11:59:20;;;;;;;1.33;0.47;;;10.80;55.00;;;;;;5031713;28;20026;-76
2023/11/07 12:01:56;;;;;;;0.90;0.22;;;10.70;56.60;;;;;;5031290;28;20029;-76
2023/11/07 12:04:47;;;;;;;0.63;0.20;;;10.60;56.30;;;;;;5030865;28;20124;-76
2023/11/07 12:07:13;;;;;;;0.77;0.13;;;10.70;55.50;;;;;;5030370;28;20040;-77
2023/11/07 12:09:41;;;;;;;1.33;0.55;;;11.20;55.50;;;;;;5029373;28;20018;-77
2023/11/07 12:12:08;;;;;;;1.02;0.40;;;11.40;54.50;;;;;;5029373;28;20037;-75
2023/11/07 12:14:53;;;;;;;0.85;0.30;;;11.30;55.00;;;;;;5031390;28;20017;-76
2023/11/07 12:17:23;;;;;;;2.40;0.77;;;11.30;54.70;;;;;;5031406;28;20486;-76
2023/11/07 12:20:00;;;;;;;3.53;2.13;;;11.30;54.70;;;;;;5013668;28;20276;-77
2023/11/07 12:22:28;;;;;;;0.20;0.20;;;11.70;55.10;;;;;;5031545;28;20482;-77
2023/11/07 12:25:16;;;;;;;1.00;0.38;;;12.20;53.30;;;;;;5030296;28;20033;-77
2023/11/07 12:27:44;;;;;;;1.65;0.52;;;12.40;51.60;;;;;;5029812;28;20025;-76
2023/11/07 12:30:18;;;;;;;0.93;0.45;;;11.90;53.20;;;;;;5029573;28;20032;-76
2023/11/07 12:32:45;;;;;;;1.00;0.50;;;11.60;54.60;;;;;;5029003;28;20167;-74
2023/11/07 12:35:21;;;;;;;2.30;0.43;;;11.30;55.90;;;;;;5030953;28;20034;-76
2023/11/07 12:37:50;;;;;;;0.68;0.30;;;11.10;56.10;;;;;;5030814;28;20120;-76
2023/11/07 12:40:16;;;;;;;1.52;0.60;;;11.00;56.60;;;;;;5029299;28;20040;-75
2023/11/07 12:42:51;;;;;;;0.65;0.47;;;11.10;57.40;;;;;;5028923;28;20029;-74
2023/11/07 12:45:25;;;;;;;1.38;0.32;;;10.90;58.10;;;;;;5029921;28;20072;-76
2023/11/07 12:48:12;;;;;;;0.77;0.70;;;10.90;57.70;;;;;;5029953;28;20443;-76
2023/11/07 12:50:43;;;;;;;1.48;0.63;;;10.80;57.70;;;;;;5029163;28;20033;-76
2023/11/07 12:53:09;;;;;;;0.60;0.30;;;10.80;58.30;;;;;;5028724;28;20128;-76
2023/11/07 12:55:37;;;;;;;2.50;0.52;;;10.90;58.10;;;;;;5030093;28;20122;-75
2023/11/07 12:58:06;;;;;;;1.80;0.60;;;11.00;58.00;;;;;;5028022;28;20036;-76
2023/11/07 13:01:03;;;;;;;3.40;1.08;;;11.20;62.10;;;;;;5027068;28;20030;-76
2023/11/07 13:03:33;;;;;;;0.70;0.60;;;11.40;60.90;;;;;;5033620;28;20459;-76
2023/11/07 13:06:09;;;;;;;3.17;0.98;;;11.70;60.80;;;;;;5029128;28;20072;-76
2023/11/07 13:08:37;;;;;;;1.77;0.50;;;12.00;59.60;;;;;;5028665;28;20327;-76
2023/11/07 13:11:19;;;;;;;1.80;0.82;;;11.90;57.50;;;;;;5027239;28;20021;-75
2023/11/07 13:13:46;;;;;;;3.08;0.60;;;11.90;60.50;;;;;;5026975;28;20048;-75
2023/11/07 13:16:13;;;;;;;1.02;0.50;;;11.90;57.00;;;;;;5028538;28;20163;-77
2023/11/07 13:18:44;;;;;;;0.95;0.68;;;11.80;59.10;;;;;;5027656;28;20151;-76
2023/11/07 13:21:12;;;;;;;2.50;0.65;;;11.40;59.40;;;;;;5033106;28;20111;-76
2023/11/07 13:23:38;;;;;;;1.45;0.30;;;10.60;65.90;;;;;;5029332;28;20128;-75
2023/11/07 13:26:08;;;;;;;2.20;0.88;;;10.00;69.20;;;;;;5030782;28;20442;-75
2023/11/07 13:28:38;;;;;;;2.17;0.40;;;9.60;72.60;;;;;;5029678;28;20136;-76
2023/11/07 13:31:07;;;;;;;1.20;0.57;;;9.40;73.00;;;;;;5030663;28;20076;-74
2023/11/07 13:33:34;;;;;;;1.20;0.88;;;9.40;75.00;;;;;;5031032;28;20026;-76
2023/11/07 13:36:00;;;;;;;1.75;0.90;;;9.40;74.80;;;;;;5029337;28;20095;-75
2023/11/07 13:38:26;;;;;;;1.50;0.70;;;9.40;74.50;;;;;;5030668;28;20033;-76
2023/11/07 13:40:52;;;;;;;1.00;0.43;;;9.40;74.40;;;;;;5029324;28;20025;-76
2023/11/07 13:43:18;;;;;;;1.17;0.50;;;9.20;73.40;;;;;;5030980;28;20150;-76
2023/11/07 13:45:45;;;;;;;1.75;0.60;;;9.20;73.60;;;;;;5030405;28;20026;-76
2023/11/07 13:48:11;;;;;;;4.88;0.60;;;9.20;74.20;;;;;;5030285;28;20026;-76
2023/11/07 13:50:38;;;;;;;1.08;0.60;;;9.20;73.40;;;;;;5030112;28;20118;-76
2023/11/07 13:53:04;;;;;;;2.25;1.27;;;9.20;74.60;;;;;;5030379;28;20483;-77
2023/11/07 13:55:32;;;;;;;1.17;0.43;;;9.10;73.50;;;;;;5031813;28;20029;-77
2023/11/07 13:57:58;;;;;;;1.15;0.75;;;9.10;75.10;;;;;;5032046;28;20082;-75
2023/11/07 14:00:24;;;;;;;0.40;0.40;;;9.00;74.70;;;;;;5029550;28;20026;-75
2023/11/07 14:02:53;;;;;;;0.50;0.40;;;8.80;73.30;;;;;;5030567;28;20041;-75
2023/11/07 14:05:19;;;;;;;0.93;0.17;;;8.70;74.70;;;;;;5029225;28;20129;-75
2023/11/07 14:07:46;;;;;;;0.50;0.30;;;8.70;74.90;;;;;;5030728;28;20029;-77
2023/11/07 14:10:13;;;;;;;0.70;0.60;;;8.60;72.90;;;;;;5030024;28;20505;-77
2023/11/07 14:12:43;;;;;;;0.43;0.38;;;8.60;73.80;;;;;;5032225;28;20030;-77
2023/11/07 14:15:11;;;;;;;0.60;0.40;;;8.60;73.90;;;;;;5033541;28;20108;-75
2023/11/07 14:17:39;;;;;;;0.60;0.57;;;8.60;73.70;;;;;;5038551;28;20163;-75